Time;durP1;ratioP1;P1;durP2;ratioP2;P2;SDS_P1;SDS_P2;PMS_P1;PMS_P2;Temp;Humidity;BMP_temperature;BMP_pressure;BME280_temperature;BME280_humidity;BME280_pressure;Samples;Min_cycle;Max_cycle;Signal;HPM_P1;HPM_P2
2023/12/15 00:02:01;;;;;;;33.23;25.50;;;;;;;4.79;97.53;101917.66;7406177;19;20509;-78
2023/12/15 00:04:28;;;;;;;33.75;25.83;;;;;;;4.82;97.60;101927.94;7403695;19;20360;-78
2023/12/15 00:06:55;;;;;;;33.22;26.00;;;;;;;4.82;97.48;101925.31;7402846;19;20385;-78
2023/12/15 00:09:23;;;;;;;37.70;25.83;;;;;;;4.84;97.28;101931.31;7393260;19;20409;-79
2023/12/15 00:11:50;;;;;;;34.55;25.55;;;;;;;4.83;97.20;101921.75;7394469;19;20376;-78
2023/12/15 00:14:17;;;;;;;32.88;25.15;;;;;;;4.80;96.91;101919.34;7394746;19;20375;-78
2023/12/15 00:16:44;;;;;;;33.70;25.58;;;;;;;4.76;96.74;101922.28;7394237;19;20368;-78
2023/12/15 00:19:12;;;;;;;35.67;25.98;;;;;;;4.69;96.77;101921.88;7394678;19;20709;-78
2023/12/15 00:21:39;;;;;;;34.67;25.98;;;;;;;4.62;96.90;101925.88;7392728;19;20362;-78
2023/12/15 00:24:08;;;;;;;34.92;26.35;;;;;;;4.54;96.86;101923.75;7391176;19;20925;-78
2023/12/15 00:26:36;;;;;;;34.72;26.17;;;;;;;4.47;96.86;101922.50;7395223;19;20670;-78
2023/12/15 00:29:03;;;;;;;35.83;26.45;;;;;;;4.40;96.82;101932.59;7392271;19;20369;-78
2023/12/15 00:31:30;;;;;;;36.30;26.60;;;;;;;4.32;96.81;101934.91;7393387;19;20486;-78
2023/12/15 00:33:58;;;;;;;36.50;26.83;;;;;;;4.23;97.05;101935.50;7391336;19;20699;-78
2023/12/15 00:36:25;;;;;;;40.50;27.20;;;;;;;4.16;96.86;101939.50;7393856;19;20352;-78
2023/12/15 00:38:51;;;;;;;39.33;26.88;;;;;;;4.07;97.17;101944.41;7397961;19;20356;-78
2023/12/15 00:41:18;;;;;;;39.63;28.03;;;;;;;4.02;97.25;101949.16;7401163;19;20428;-78
2023/12/15 00:43:45;;;;;;;39.60;27.20;;;;;;;3.94;97.56;101954.06;7400607;19;20366;-78
2023/12/15 00:46:12;;;;;;;44.20;27.52;;;;;;;3.88;97.59;101957.06;7403141;19;20383;-78
2023/12/15 00:48:38;;;;;;;43.88;29.42;;;;;;;3.79;97.44;101958.53;7401299;19;20372;-78
2023/12/15 00:51:05;;;;;;;41.67;27.85;;;;;;;3.72;97.69;101959.00;7398309;19;20333;-78
2023/12/15 00:53:32;;;;;;;43.17;27.73;;;;;;;3.65;97.84;101967.28;7400817;19;20355;-78
2023/12/15 00:56:00;;;;;;;48.03;30.13;;;;;;;3.59;98.15;101982.56;7397529;19;20868;-78
2023/12/15 00:58:28;;;;;;;48.00;30.20;;;;;;;3.53;98.28;101978.56;7399297;19;20352;-78
2023/12/15 01:00:55;;;;;;;47.53;30.52;;;;;;;3.51;98.48;101971.72;7400492;19;20364;-78
2023/12/15 01:03:21;;;;;;;46.90;30.20;;;;;;;3.50;98.98;101981.38;7399835;19;20369;-79
2023/12/15 01:05:50;;;;;;;45.60;30.98;;;;;;;3.50;99.12;101981.38;7400578;19;20353;-78
2023/12/15 01:08:17;;;;;;;44.70;30.35;;;;;;;3.51;99.10;101980.44;7397397;19;20348;-78
2023/12/15 01:10:44;;;;;;;43.63;29.57;;;;;;;3.53;99.27;101977.72;7400132;19;20449;-78
2023/12/15 01:13:14;;;;;;;45.53;29.67;;;;;;;3.55;99.17;101997.69;7394620;19;22915;-78
2023/12/15 01:15:41;;;;;;;45.08;30.20;;;;;;;3.54;99.65;101998.59;7395944;19;20368;-78
2023/12/15 01:18:08;;;;;;;45.95;31.15;;;;;;;3.59;99.71;102011.44;7400668;19;20365;-78
2023/12/15 01:20:34;;;;;;;44.40;30.55;;;;;;;3.61;100.00;102001.69;7395143;19;20687;-78
2023/12/15 01:23:01;;;;;;;44.13;30.42;;;;;;;3.63;100.00;102010.31;7398595;19;20677;-78
2023/12/15 01:25:28;;;;;;;40.58;29.33;;;;;;;3.66;99.80;102018.84;7396870;19;20951;-78
2023/12/15 01:27:55;;;;;;;37.05;27.50;;;;;;;3.70;99.81;102016.88;7397626;19;20385;-78
2023/12/15 01:30:22;;;;;;;38.30;29.13;;;;;;;3.76;99.55;102018.22;7397414;19;20367;-78
2023/12/15 01:32:49;;;;;;;38.40;29.25;;;;;;;3.79;99.67;102016.25;7398681;19;20360;-78
2023/12/15 01:35:15;;;;;;;40.33;29.38;;;;;;;3.83;99.56;102006.41;7396867;19;20347;-78
2023/12/15 01:37:42;;;;;;;37.17;28.58;;;;;;;3.87;99.28;102018.41;7397856;19;20371;-78
2023/12/15 01:40:09;;;;;;;36.03;27.38;;;;;;;3.88;99.11;102013.03;7396894;19;20688;-78
2023/12/15 01:42:36;;;;;;;35.95;27.70;;;;;;;3.92;98.79;102013.69;7395795;19;20349;-79
2023/12/15 01:45:03;;;;;;;35.35;27.67;;;;;;;3.94;98.33;102017.06;7398631;19;20377;-78
2023/12/15 01:47:30;;;;;;;32.45;26.67;;;;;;;3.98;98.15;102015.09;7396463;19;20361;-78
2023/12/15 01:49:58;;;;;;;32.97;25.33;;;;;;;4.00;97.67;102014.03;7397827;19;20352;-78
2023/12/15 01:52:26;;;;;;;33.15;25.83;;;;;;;4.05;97.26;102017.19;7394920;19;20337;-78
2023/12/15 01:54:53;;;;;;;30.80;25.02;;;;;;;4.12;97.36;102025.50;7396917;19;20365;-79
2023/12/15 01:57:20;;;;;;;29.60;24.27;;;;;;;4.16;97.09;102023.53;7396872;19;20344;-78
2023/12/15 01:59:51;;;;;;;31.45;25.05;;;;;;;4.20;96.60;102019.78;7397697;19;20333;-78
2023/12/15 02:02:18;;;;;;;29.37;24.00;;;;;;;4.25;96.69;102026.41;7396773;19;20361;-79
2023/12/15 02:04:46;;;;;;;28.52;24.20;;;;;;;4.31;96.64;102032.19;7392605;19;20703;-78
2023/12/15 02:07:13;;;;;;;28.52;23.27;;;;;;;4.33;96.09;102030.31;7397146;19;20447;-78
2023/12/15 02:09:40;;;;;;;29.88;24.42;;;;;;;4.34;95.73;102017.09;7396989;19;20718;-78
2023/12/15 02:12:07;;;;;;;29.88;23.77;;;;;;;4.35;95.43;102015.28;7396226;19;20365;-77
2023/12/15 02:14:34;;;;;;;30.27;24.15;;;;;;;4.38;95.89;102029.06;7396178;19;20700;-79
2023/12/15 02:17:00;;;;;;;29.73;24.45;;;;;;;4.41;95.63;102013.09;7395966;19;20356;-78
2023/12/15 02:19:27;;;;;;;30.80;24.88;;;;;;;4.42;95.45;102016.56;7397602;19;20846;-78
2023/12/15 02:21:54;;;;;;;28.83;24.05;;;;;;;4.41;95.17;102018.34;7394560;19;20689;-78
2023/12/15 02:24:21;;;;;;;29.08;23.42;;;;;;;4.39;95.29;102025.50;7397031;19;20373;-78
2023/12/15 02:26:47;;;;;;;29.20;24.38;;;;;;;4.41;95.08;102022.78;7396242;19;20711;-78
2023/12/15 02:29:14;;;;;;;29.45;24.25;;;;;;;4.40;95.15;102029.81;7397112;19;20328;-78
2023/12/15 02:31:41;;;;;;;27.77;23.80;;;;;;;4.41;95.22;102026.22;7397951;19;20353;-78
2023/12/15 02:34:08;;;;;;;28.92;23.65;;;;;;;4.42;95.10;102021.81;7392495;19;20357;-78
2023/12/15 02:36:36;;;;;;;29.40;24.10;;;;;;;4.40;94.72;102019.31;7391609;19;20967;-78
2023/12/15 02:39:03;;;;;;;30.02;24.50;;;;;;;4.39;94.88;102012.34;7393173;19;20360;-78
2023/12/15 02:41:30;;;;;;;29.73;24.10;;;;;;;4.38;94.54;102021.19;7395247;19;20381;-78
2023/12/15 02:43:58;;;;;;;29.80;24.35;;;;;;;4.38;94.76;102026.44;7395457;19;20360;-78
2023/12/15 02:46:24;;;;;;;28.63;23.70;;;;;;;4.39;94.65;102027.28;7397274;19;20674;-78
2023/12/15 02:48:51;;;;;;;29.10;24.10;;;;;;;4.40;94.69;102027.19;7396860;19;20690;-78
2023/12/15 02:51:29;;;;;;;31.40;25.35;;;;;;;4.43;94.65;102031.38;7393234;19;20465;-79
2023/12/15 02:54:00;;;;;;;29.52;24.65;;;;;;;4.44;94.63;102028.66;7393581;19;20364;-78
2023/12/15 02:56:27;;;;;;;29.83;24.38;;;;;;;4.45;94.67;102011.94;7393556;19;20826;-79
2023/12/15 02:58:54;;;;;;;30.92;24.25;;;;;;;4.42;94.44;102014.78;7396900;19;20349;-78
2023/12/15 03:01:21;;;;;;;31.30;24.70;;;;;;;4.44;94.49;102025.19;7396284;19;20376;-78
2023/12/15 03:03:48;;;;;;;31.05;24.33;;;;;;;4.44;94.42;102028.66;7396771;19;20389;-78
2023/12/15 03:06:15;;;;;;;30.38;24.23;;;;;;;4.42;94.11;102030.56;7394404;19;20344;-78
2023/12/15 03:08:41;;;;;;;30.58;24.08;;;;;;;4.45;93.99;102030.34;7393332;19;20357;-78
2023/12/15 03:11:08;;;;;;;29.42;23.52;;;;;;;4.49;94.17;102031.00;7394233;19;20916;-78
2023/12/15 03:13:38;;;;;;;29.98;24.92;;;;;;;4.49;94.17;102029.19;7392595;19;20329;-78
2023/12/15 03:16:12;;;;;;;30.37;24.10;;;;;;;4.51;94.02;102041.41;7391050;19;20387;-78
2023/12/15 03:18:38;;;;;;;29.98;24.73;;;;;;;4.48;94.06;102039.78;7394372;19;20404;-78
2023/12/15 03:21:05;;;;;;;29.88;24.17;;;;;;;4.47;94.47;102038.13;7396093;19;20367;-78
2023/12/15 03:23:32;;;;;;;30.80;24.17;;;;;;;4.47;94.65;102038.13;7393847;19;20347;-78
2023/12/15 03:25:59;;;;;;;30.95;25.05;;;;;;;4.46;94.79;102039.91;7395624;19;20365;-77
2023/12/15 03:28:26;;;;;;;30.60;24.98;;;;;;;4.46;95.15;102041.69;7396420;19;20719;-78
2023/12/15 03:30:53;;;;;;;31.88;25.05;;;;;;;4.44;95.34;102036.56;7391753;19;20360;-78
2023/12/15 03:33:24;;;;;;;32.13;25.30;;;;;;;4.48;95.62;102035.41;7395878;19;20389;-78
2023/12/15 03:35:51;;;;;;;31.40;24.20;;;;;;;4.47;95.57;102041.59;7391870;19;20336;-77
2023/12/15 03:38:19;;;;;;;30.65;24.52;;;;;;;4.49;95.75;102044.13;7390876;19;20356;-78
2023/12/15 03:40:46;;;;;;;33.97;25.02;;;;;;;4.45;95.69;102035.59;7394616;19;20361;-78
2023/12/15 03:43:13;;;;;;;31.73;24.33;;;;;;;4.49;95.94;102047.59;7394624;19;20356;-78
2023/12/15 03:45:39;;;;;;;29.67;23.55;;;;;;;4.51;95.64;102038.78;7393565;19;20432;-79
2023/12/15 03:48:06;;;;;;;33.00;24.98;;;;;;;4.52;95.63;102045.69;7395175;19;20440;-78
2023/12/15 03:50:33;;;;;;;31.60;23.97;;;;;;;4.51;95.74;102046.66;7390437;19;20356;-78
2023/12/15 03:53:00;;;;;;;30.08;24.23;;;;;;;4.51;96.00;102059.81;7392648;19;20860;-79
2023/12/15 03:55:27;;;;;;;30.77;24.05;;;;;;;4.49;96.15;102057.25;7393673;19;20676;-78
2023/12/15 03:57:54;;;;;;;30.48;23.90;;;;;;;4.53;95.96;102052.63;7392703;19;20412;-78
2023/12/15 04:00:20;;;;;;;30.83;23.85;;;;;;;4.56;96.09;102057.69;7393605;19;20373;-78
2023/12/15 04:02:47;;;;;;;31.52;24.27;;;;;;;4.55;96.01;102054.22;7393110;19;20360;-78
2023/12/15 04:05:14;;;;;;;31.25;23.38;;;;;;;4.57;96.16;102064.63;7392912;19;20395;-78
2023/12/15 04:07:42;;;;;;;33.10;24.37;;;;;;;4.59;96.13;102068.00;7388491;19;20364;-78
2023/12/15 04:10:09;;;;;;;31.65;24.45;;;;;;;4.58;96.36;102061.06;7392689;19;20341;-78
2023/12/15 04:12:35;;;;;;;30.92;23.98;;;;;;;4.57;96.48;102077.75;7390068;19;20349;-78
2023/12/15 04:15:03;;;;;;;30.95;23.85;;;;;;;4.61;96.31;102066.09;7392510;19;20520;-78
2023/12/15 04:17:29;;;;;;;30.13;23.90;;;;;;;4.62;96.46;102062.53;7387173;19;20385;-78
2023/12/15 04:19:56;;;;;;;33.38;23.83;;;;;;;4.65;96.20;102067.59;7390276;19;20436;-78
2023/12/15 04:22:23;;;;;;;32.10;24.38;;;;;;;4.67;96.13;102057.81;7392274;19;20352;-78
2023/12/15 04:24:50;;;;;;;33.00;23.85;;;;;;;4.69;96.32;102058.56;7390282;19;20356;-78
2023/12/15 04:27:17;;;;;;;32.75;25.10;;;;;;;4.70;96.39;102071.59;7387405;19;20375;-78
2023/12/15 04:29:43;;;;;;;32.83;24.35;;;;;;;4.72;96.14;102063.63;7390852;19;20376;-78
2023/12/15 04:32:12;;;;;;;31.45;24.60;;;;;;;4.70;96.42;102076.84;7392909;19;20337;-78
2023/12/15 04:34:39;;;;;;;31.33;24.70;;;;;;;4.71;96.44;102064.53;7384411;19;20400;-78
2023/12/15 04:37:06;;;;;;;32.28;24.13;;;;;;;4.73;96.44;102072.34;7386737;19;20382;-78
2023/12/15 04:39:33;;;;;;;31.33;24.35;;;;;;;4.75;96.69;102080.97;7392532;19;20344;-78
2023/12/15 04:42:00;;;;;;;32.03;24.13;;;;;;;4.72;96.36;102074.13;7391113;19;20424;-78
2023/12/15 04:44:27;;;;;;;33.03;25.38;;;;;;;4.75;96.57;102079.16;7391202;19;20816;-78
2023/12/15 04:46:55;;;;;;;34.10;25.03;;;;;;;4.75;96.51;102078.34;7389794;19;20348;-78
2023/12/15 04:49:22;;;;;;;35.70;25.65;;;;;;;4.76;96.67;102075.63;7390104;19;20364;-78
2023/12/15 04:51:49;;;;;;;34.17;24.53;;;;;;;4.76;96.55;102080.88;7391554;19;20402;-78
2023/12/15 04:54:16;;;;;;;38.38;26.02;;;;;;;4.76;96.90;102080.88;7390122;19;20381;-78
2023/12/15 04:56:44;;;;;;;34.60;25.55;;;;;;;4.80;96.69;102074.47;7384640;19;20383;-78
2023/12/15 04:59:12;;;;;;;35.50;25.40;;;;;;;4.81;96.96;102076.13;7389264;19;20377;-78
2023/12/15 05:01:39;;;;;;;37.83;26.87;;;;;;;4.83;96.92;102068.97;7386814;19;20884;-78
2023/12/15 05:04:06;;;;;;;35.88;26.20;;;;;;;4.86;96.77;102084.53;7387125;19;20939;-79
2023/12/15 05:06:34;;;;;;;37.38;26.33;;;;;;;4.87;96.93;102080.16;7386555;19;20703;-79
2023/12/15 05:09:04;;;;;;;38.67;26.85;;;;;;;4.86;96.99;102081.06;7387664;19;20372;-78
2023/12/15 05:11:35;;;;;;;38.17;27.85;;;;;;;4.85;97.56;102079.41;7390816;19;20864;-78
2023/12/15 05:14:02;;;;;;;39.15;28.15;;;;;;;4.90;97.62;102082.56;7389117;19;20427;-78
2023/12/15 05:16:29;;;;;;;42.42;28.98;;;;;;;4.94;97.37;102088.47;7383356;19;20876;-78
2023/12/15 05:18:56;;;;;;;42.90;30.45;;;;;;;4.94;97.94;102089.28;7390004;19;20368;-78
2023/12/15 05:21:23;;;;;;;42.38;29.60;;;;;;;4.93;98.15;102081.50;7386017;19;20366;-79
2023/12/15 05:23:50;;;;;;;47.58;31.98;;;;;;;4.96;98.46;102081.31;7390625;19;20371;-79
2023/12/15 05:26:17;;;;;;;47.33;31.10;;;;;;;4.95;98.64;102090.13;7396794;19;20341;-79
2023/12/15 05:28:44;;;;;;;45.78;30.98;;;;;;;4.94;98.85;102089.28;7396629;19;20378;-78
2023/12/15 05:31:11;;;;;;;47.50;31.42;;;;;;;4.97;98.92;102088.25;7396673;19;20661;-78
2023/12/15 05:33:38;;;;;;;49.60;32.90;;;;;;;4.97;98.92;102090.88;7396674;19;20367;-78
2023/12/15 05:36:05;;;;;;;54.58;36.03;;;;;;;4.95;99.02;102095.38;7396965;19;20348;-78
2023/12/15 05:38:32;;;;;;;44.63;30.52;;;;;;;4.94;99.02;102093.72;7396351;19;20856;-78
2023/12/15 05:41:00;;;;;;;46.38;31.48;;;;;;;4.97;99.01;102096.97;7397025;19;20753;-78
2023/12/15 05:43:27;;;;;;;50.08;32.33;;;;;;;4.99;99.28;102102.13;7395152;19;20431;-78
2023/12/15 05:45:54;;;;;;;45.47;30.73;;;;;;;4.99;99.38;102113.47;7397239;19;20885;-78
2023/12/15 05:48:20;;;;;;;50.00;32.47;;;;;;;5.01;99.24;102110.75;7396768;19;20868;-78
2023/12/15 05:50:47;;;;;;;48.90;32.67;;;;;;;5.04;99.28;102105.31;7395843;19;20368;-78
2023/12/15 05:53:14;;;;;;;51.28;33.13;;;;;;;5.06;99.17;102119.19;7395632;19;20374;-78
2023/12/15 05:55:41;;;;;;;49.80;33.00;;;;;;;5.09;99.12;102125.06;7395579;19;20429;-78
2023/12/15 05:58:08;;;;;;;48.17;32.92;;;;;;;5.11;98.93;102122.34;7396681;19;20357;-78
2023/12/15 06:00:34;;;;;;;45.92;31.70;;;;;;;5.11;99.07;102127.59;7392304;19;20686;-78
2023/12/15 06:03:01;;;;;;;49.97;31.83;;;;;;;5.11;99.28;102124.97;7391561;19;20892;-78
2023/12/15 06:05:28;;;;;;;49.92;32.72;;;;;;;5.13;99.16;102128.34;7394899;19;20388;-78
2023/12/15 06:07:55;;;;;;;47.55;31.95;;;;;;;5.12;99.34;102129.28;7391608;19;20349;-78
2023/12/15 06:10:22;;;;;;;50.72;32.30;;;;;;;5.12;99.74;102137.16;7392772;19;20693;-78
2023/12/15 06:12:48;;;;;;;46.35;31.77;;;;;;;5.11;99.97;102141.59;7395206;19;20357;-79
2023/12/15 06:15:15;;;;;;;52.53;34.08;;;;;;;5.13;100.00;102130.13;7397793;19;20372;-78
2023/12/15 06:17:42;;;;;;;50.42;33.15;;;;;;;5.10;100.00;102137.28;7392861;19;20369;-78
2023/12/15 06:20:13;;;;;;;51.17;33.30;;;;;;;5.12;100.00;102145.06;7398172;19;20356;-78
2023/12/15 06:22:39;;;;;;;51.22;32.75;;;;;;;5.13;100.00;102133.59;7391684;19;20702;-78
2023/12/15 06:25:07;;;;;;;46.50;31.80;;;;;;;5.15;100.00;102136.97;7395395;19;20369;-78
2023/12/15 06:27:33;;;;;;;52.30;33.53;;;;;;;5.20;100.00;102141.91;7391399;19;20376;-78
2023/12/15 06:30:01;;;;;;;48.93;33.20;;;;;;;5.23;100.00;102157.50;7395955;19;20741;-78
2023/12/15 06:32:28;;;;;;;49.83;32.55;;;;;;;5.27;100.00;102167.72;7396052;19;20349;-78
2023/12/15 06:34:56;;;;;;;48.42;31.90;;;;;;;5.31;100.00;102160.44;7387385;19;20360;-78
2023/12/15 06:37:23;;;;;;;46.15;31.13;;;;;;;5.35;100.00;102171.59;7391571;19;20363;-78
2023/12/15 06:39:50;;;;;;;40.88;28.70;;;;;;;5.37;100.00;102159.19;7395827;19;20368;-78
2023/12/15 06:42:17;;;;;;;40.25;29.38;;;;;;;5.41;100.00;102168.56;7392370;19;20363;-78
2023/12/15 06:44:43;;;;;;;38.75;27.42;;;;;;;5.43;100.00;102158.78;7392193;19;20357;-78
2023/12/15 06:47:10;;;;;;;37.92;27.90;;;;;;;5.46;100.00;102161.19;7394594;19;20385;-79
2023/12/15 06:49:37;;;;;;;41.30;27.67;;;;;;;5.49;100.00;102168.88;7392921;19;20885;-79
2023/12/15 06:52:05;;;;;;;39.15;27.77;;;;;;;5.56;100.00;102170.13;7393994;19;20348;-79
2023/12/15 06:54:32;;;;;;;38.03;26.83;;;;;;;5.60;99.95;102176.03;7391886;19;20357;-79
2023/12/15 06:56:58;;;;;;;38.42;27.45;;;;;;;5.63;99.77;102176.66;7391996;19;20368;-79
2023/12/15 06:59:25;;;;;;;38.38;26.58;;;;;;;5.65;99.40;102177.41;7392174;19;20349;-79
2023/12/15 07:01:52;;;;;;;37.15;26.27;;;;;;;5.69;99.45;102170.13;7394128;19;20360;-79
2023/12/15 07:04:19;;;;;;;36.10;25.60;;;;;;;5.72;99.35;102162.84;7391128;19;20360;-79
2023/12/15 07:06:46;;;;;;;35.50;26.20;;;;;;;5.77;99.61;102172.22;7393660;19;20332;-78
2023/12/15 07:09:13;;;;;;;34.67;25.55;;;;;;;5.81;99.57;102171.06;7390820;19;20365;-79
2023/12/15 07:11:45;;;;;;;33.83;24.63;;;;;;;5.85;99.50;102178.63;7395933;19;20479;-79
2023/12/15 07:14:11;;;;;;;32.78;24.38;;;;;;;5.83;99.44;102177.06;7393926;19;20723;-79
2023/12/15 07:16:38;;;;;;;32.80;24.15;;;;;;;5.88;99.39;102185.47;7392687;19;20357;-79
2023/12/15 07:19:05;;;;;;;30.98;23.75;;;;;;;5.89;99.18;102190.66;7390095;19;20352;-79
2023/12/15 07:21:31;;;;;;;32.35;24.05;;;;;;;5.90;99.37;102183.59;7394130;19;20374;-79
2023/12/15 07:23:58;;;;;;;31.30;23.48;;;;;;;5.92;99.24;102182.53;7394744;19;20844;-79
2023/12/15 07:26:25;;;;;;;30.20;23.53;;;;;;;5.92;99.27;102187.78;7393005;19;20361;-79
2023/12/15 07:28:51;;;;;;;29.20;22.38;;;;;;;5.96;99.42;102185.81;7393682;19;20671;-79
2023/12/15 07:31:18;;;;;;;27.58;21.75;;;;;;;5.98;99.50;102186.56;7392194;19;20385;-79
2023/12/15 07:33:45;;;;;;;28.53;21.07;;;;;;;6.00;99.47;102183.81;7388604;19;20498;-79
2023/12/15 07:36:12;;;;;;;26.38;20.85;;;;;;;6.02;99.64;102195.09;7392584;19;20375;-79
2023/12/15 07:38:39;;;;;;;28.83;21.83;;;;;;;6.05;99.79;102197.50;7389863;19;20360;-79
2023/12/15 07:41:07;;;;;;;27.60;21.83;;;;;;;6.04;99.72;102204.56;7393769;19;20356;-79
2023/12/15 07:43:36;;;;;;;28.48;22.08;;;;;;;6.07;100.00;102212.25;7394681;19;20627;-82
2023/12/15 07:46:03;;;;;;;28.98;22.40;;;;;;;6.11;100.00;102216.34;7396247;19;20381;-81
2023/12/15 07:48:30;;;;;;;28.50;23.45;;;;;;;6.17;100.00;102214.25;7400139;19;20397;-81
2023/12/15 07:50:57;;;;;;;28.10;22.90;;;;;;;6.18;100.00;102218.53;7398776;19;20377;-81
2023/12/15 07:53:24;;;;;;;30.88;23.73;;;;;;;6.20;100.00;102222.75;7395677;19;20373;-81
2023/12/15 07:55:50;;;;;;;31.15;24.55;;;;;;;6.24;100.00;102233.94;7391549;19;20368;-81
2023/12/15 07:58:19;;;;;;;28.63;23.58;;;;;;;6.23;100.00;102233.09;7394450;19;20401;-81
2023/12/15 08:00:46;;;;;;;32.70;24.35;;;;;;;6.27;100.00;102233.72;7398965;19;20356;-81
2023/12/15 08:03:13;;;;;;;32.55;24.95;;;;;;;6.27;100.00;102249.53;7395367;19;20691;-81
2023/12/15 08:05:40;;;;;;;32.83;25.30;;;;;;;6.31;100.00;102246.56;7394614;19;20438;-80
2023/12/15 08:08:07;;;;;;;31.85;24.35;;;;;;;6.35;100.00;102252.44;7395650;19;20352;-81
2023/12/15 08:10:34;;;;;;;33.42;25.02;;;;;;;6.37;100.00;102240.00;7397544;19;20367;-81
2023/12/15 08:13:01;;;;;;;33.83;26.60;;;;;;;6.42;100.00;102258.97;7393172;19;20972;-81
2023/12/15 08:15:28;;;;;;;33.60;25.87;;;;;;;6.45;100.00;102261.38;7397630;19;20384;-81
2023/12/15 08:17:56;;;;;;;33.95;25.15;;;;;;;6.51;100.00;102271.50;7396781;19;20758;-81
2023/12/15 08:20:24;;;;;;;33.47;26.17;;;;;;;6.57;100.00;102277.28;7395844;19;20370;-81
2023/12/15 08:22:51;;;;;;;34.20;25.67;;;;;;;6.62;100.00;102269.91;7400289;19;20361;-82
2023/12/15 08:25:18;;;;;;;31.85;24.83;;;;;;;6.68;100.00;102269.47;7390377;19;20715;-81
2023/12/15 08:27:44;;;;;;;32.45;24.05;;;;;;;6.71;100.00;102277.97;7398738;19;20356;-81
2023/12/15 08:30:11;;;;;;;31.92;24.38;;;;;;;6.77;100.00;102289.03;7396754;19;20699;-81
2023/12/15 08:32:38;;;;;;;32.67;24.23;;;;;;;6.80;99.77;102283.53;7395653;19;20967;-82
2023/12/15 08:35:05;;;;;;;31.25;23.55;;;;;;;6.87;100.00;102280.34;7396118;19;20434;-81
2023/12/15 08:37:33;;;;;;;30.10;22.58;;;;;;;6.93;99.79;102289.63;7396933;19;20364;-81
2023/12/15 08:40:00;;;;;;;32.30;24.38;;;;;;;7.01;99.72;102294.31;7396631;19;20358;-81
2023/12/15 08:42:27;;;;;;;28.48;22.60;;;;;;;7.08;99.35;102287.66;7399686;19;20357;-82
2023/12/15 08:44:53;;;;;;;30.88;23.25;;;;;;;7.15;99.16;102302.91;7395952;19;20370;-82
2023/12/15 08:47:20;;;;;;;29.95;22.88;;;;;;;7.22;98.94;102311.22;7401334;19;20862;-82
2023/12/15 08:49:47;;;;;;;28.33;21.80;;;;;;;7.22;98.29;102305.94;7397820;19;20837;-81
2023/12/15 08:52:14;;;;;;;29.52;22.25;;;;;;;7.26;98.22;102302.13;7396430;19;20368;-82
2023/12/15 08:54:41;;;;;;;30.52;22.50;;;;;;;7.29;97.98;102307.19;7400506;19;20357;-81
2023/12/15 08:57:08;;;;;;;29.27;22.00;;;;;;;7.37;98.05;102308.41;7395427;19;20337;-82
2023/12/15 08:59:35;;;;;;;30.52;22.23;;;;;;;7.43;97.78;102300.03;7409359;19;20348;-82
2023/12/15 09:02:02;;;;;;;29.70;21.65;;;;;;;7.48;97.41;102300.50;7404418;19;20674;-82
2023/12/15 09:04:28;;;;;;;29.13;21.73;;;;;;;7.55;96.98;102309.69;7402623;19;20353;-82
2023/12/15 09:06:55;;;;;;;30.75;21.98;;;;;;;7.65;96.94;102317.72;7405675;19;20349;-82
2023/12/15 09:09:23;;;;;;;28.85;21.92;;;;;;;7.70;96.71;102329.66;7401970;19;20348;-82
2023/12/15 09:11:51;;;;;;;27.60;20.67;;;;;;;7.74;96.42;102328.44;7410189;19;20939;-82
2023/12/15 09:14:18;;;;;;;28.02;20.20;;;;;;;7.74;95.84;102333.75;7406879;19;20504;-82
2023/12/15 09:16:47;;;;;;;25.50;19.45;;;;;;;7.80;95.89;102342.16;7407063;19;20340;-82
2023/12/15 09:19:14;;;;;;;25.15;19.20;;;;;;;7.81;95.72;102349.13;7403461;19;20336;-81
2023/12/15 09:21:41;;;;;;;25.58;19.23;;;;;;;7.76;94.94;102346.84;7409720;19;20352;-82
2023/12/15 09:24:08;;;;;;;26.25;18.35;;;;;;;7.75;95.06;102361.81;7407308;19;20349;-82
2023/12/15 09:26:38;;;;;;;22.73;17.55;;;;;;;7.75;94.99;102356.53;7410194;19;20337;-82
2023/12/15 09:29:06;;;;;;;26.20;18.25;;;;;;;7.76;95.04;102365.34;7410043;19;20357;-82
2023/12/15 09:31:33;;;;;;;25.23;18.10;;;;;;;7.73;95.04;102369.03;7410137;19;20352;-81
2023/12/15 09:34:00;;;;;;;26.43;19.27;;;;;;;7.78;94.97;102378.41;7414000;19;20382;-81
2023/12/15 09:36:27;;;;;;;24.65;17.25;;;;;;;7.79;94.75;102377.47;7414307;19;20361;-82
2023/12/15 09:38:55;;;;;;;24.63;17.52;;;;;;;7.77;94.80;102385.50;7411108;19;20400;-82
2023/12/15 09:41:24;;;;;;;26.50;17.88;;;;;;;7.78;94.99;102396.91;7411798;19;20389;-81
2023/12/15 09:43:50;;;;;;;24.85;18.23;;;;;;;7.76;95.14;102400.50;7410627;19;20366;-81
2023/12/15 09:46:20;;;;;;;27.45;18.52;;;;;;;7.75;95.21;102397.97;7408342;19;20345;-81
2023/12/15 09:48:49;;;;;;;27.23;19.25;;;;;;;7.71;95.43;102423.78;7407016;19;20394;-81
2023/12/15 09:51:25;;;;;;;32.17;20.65;;;;;;;7.67;95.57;102427.63;7410747;19;20876;-81
2023/12/15 09:53:52;;;;;;;31.42;20.05;;;;;;;7.69;95.94;102432.75;7407201;19;20352;-82
2023/12/15 09:56:19;;;;;;;30.15;20.67;;;;;;;7.61;96.27;102443.91;7408075;19;20366;-81
2023/12/15 09:58:46;;;;;;;35.42;21.95;;;;;;;7.58;96.60;102449.41;7402633;19;20340;-81
2023/12/15 10:01:13;;;;;;;33.83;21.50;;;;;;;7.54;97.00;102453.22;7399563;19;20879;-82
2023/12/15 10:03:40;;;;;;;33.85;21.70;;;;;;;7.50;97.25;102449.13;7402035;19;20754;-82
2023/12/15 10:06:07;;;;;;;32.97;22.53;;;;;;;7.52;97.28;102445.44;7401926;19;20393;-82
2023/12/15 10:08:42;;;;;;;32.85;22.40;;;;;;;7.54;97.44;102442.66;7399784;19;20357;-82
2023/12/15 10:11:28;;;;;;;32.40;21.60;;;;;;;7.56;97.20;102446.03;7403453;19;20887;-81
2023/12/15 10:13:55;;;;;;;31.50;21.17;;;;;;;7.58;96.92;102452.03;7400788;19;20356;-82
2023/12/15 10:16:26;;;;;;;32.80;21.80;;;;;;;7.66;96.80;102451.50;7401747;19;20363;-82
2023/12/15 10:18:53;;;;;;;31.83;21.70;;;;;;;7.60;96.88;102447.50;7398366;19;20340;-82
2023/12/15 10:21:20;;;;;;;32.38;21.45;;;;;;;7.70;96.79;102447.69;7398800;19;20377;-82
2023/12/15 10:23:47;;;;;;;34.38;22.17;;;;;;;7.69;96.97;102454.75;7399666;19;20348;-81
2023/12/15 10:26:14;;;;;;;31.85;21.55;;;;;;;7.72;96.73;102451.03;7397789;19;20344;-82
2023/12/15 10:28:42;;;;;;;33.65;21.70;;;;;;;7.81;96.68;102452.16;7398857;19;20345;-82
2023/12/15 10:31:08;;;;;;;34.90;21.40;;;;;;;7.85;96.40;102459.75;7401898;19;20400;-81
2023/12/15 10:33:35;;;;;;;32.83;22.35;;;;;;;7.92;96.31;102468.06;7399256;19;20868;-82
2023/12/15 10:36:06;;;;;;;32.05;21.48;;;;;;;7.91;95.86;102471.66;7398690;19;20355;-82
2023/12/15 10:38:33;;;;;;;33.30;21.10;;;;;;;8.00;95.67;102470.97;7399608;19;20365;-82
2023/12/15 10:41:01;;;;;;;32.92;20.67;;;;;;;8.00;95.48;102473.63;7397030;19;20353;-82
2023/12/15 10:43:30;;;;;;;31.70;20.20;;;;;;;8.02;95.25;102470.88;7398237;19;20368;-82
2023/12/15 10:45:58;;;;;;;30.10;20.00;;;;;;;8.06;95.47;102459.13;7397784;19;20371;-81
2023/12/15 10:48:33;;;;;;;31.70;19.95;;;;;;;8.08;95.11;102465.97;7398814;19;20367;-82
2023/12/15 10:51:02;;;;;;;29.42;19.27;;;;;;;8.08;94.95;102462.47;7401149;19;20348;-82
2023/12/15 10:53:31;;;;;;;30.33;20.00;;;;;;;8.14;95.12;102462.88;7403092;19;20408;-82
2023/12/15 10:56:00;;;;;;;31.13;19.85;;;;;;;8.20;94.78;102453.59;7403415;19;20392;-81
2023/12/15 10:58:26;;;;;;;31.15;20.33;;;;;;;8.28;94.38;102448.59;7406895;19;20349;-81
2023/12/15 11:00:55;;;;;;;32.05;20.42;;;;;;;8.36;94.42;102453.31;7403738;19;20377;-82
2023/12/15 11:03:23;;;;;;;33.25;20.50;;;;;;;8.40;94.23;102467.97;7406687;19;20879;-81
2023/12/15 11:05:49;;;;;;;30.73;20.30;;;;;;;8.41;93.88;102461.75;7405764;19;20759;-82
2023/12/15 11:08:16;;;;;;;30.07;20.33;;;;;;;8.45;94.37;102444.69;7406874;19;20340;-82
2023/12/15 11:10:43;;;;;;;33.17;21.70;;;;;;;8.44;94.05;102463.34;7408068;19;20701;-82
2023/12/15 11:13:48;;;;;;;32.67;21.95;;;;;;;8.38;94.07;102475.19;7411183;19;20864;-82
2023/12/15 11:16:17;;;;;;;31.35;21.30;;;;;;;8.35;94.51;102481.56;7421261;19;20363;-82
2023/12/15 11:18:44;;;;;;;32.63;21.40;;;;;;;8.37;94.37;102479.63;7422167;19;20365;-82